createdAt,value
2019-02-11T00:03:59.601Z,99.05
2019-02-11T00:08:58.710Z,100.00
2019-02-11T00:14:02.805Z,100.00
2019-02-11T00:19:07.240Z,97.82
2019-02-11T00:24:11.289Z,99.37
2019-02-11T00:29:16.565Z,99.36
2019-02-11T00:34:20.639Z,100.00
2019-02-11T00:39:24.701Z,100.00
2019-02-11T00:44:29.464Z,100.00
2019-02-11T00:49:33.544Z,100.00
2019-02-11T00:54:37.945Z,97.80
2019-02-11T00:59:42.255Z,98.10
2019-02-11T01:04:46.298Z,98.44
2019-02-11T01:09:51.249Z,98.43
2019-02-11T01:14:55.280Z,99.12
2019-02-11T01:19:59.385Z,98.85
2019-02-11T01:25:03.633Z,100.00
2019-02-11T01:30:10.197Z,100.00
2019-02-11T01:35:14.248Z,100.00
2019-02-11T01:40:18.244Z,100.00
2019-02-11T01:45:22.279Z,100.00
2019-02-11T01:50:26.332Z,100.00
2019-02-11T01:55:30.416Z,100.00
2019-02-11T02:00:34.547Z,100.00
2019-02-11T02:05:38.616Z,100.00
2019-02-11T02:10:42.762Z,100.00
2019-02-11T02:15:46.919Z,100.00
2019-02-11T02:20:50.952Z,100.00
2019-02-11T02:25:54.988Z,100.00
2019-02-11T02:30:59.154Z,100.00
2019-02-11T02:36:03.180Z,100.00
2019-02-11T02:41:07.261Z,100.00
2019-02-11T02:46:11.328Z,100.00
2019-02-11T02:51:15.382Z,100.00
2019-02-11T02:56:19.447Z,100.00
2019-02-11T03:01:23.610Z,100.00
2019-02-11T03:06:27.685Z,100.00
2019-02-11T03:11:34.310Z,100.00
2019-02-11T03:16:37.900Z,100.00
2019-02-11T03:21:41.973Z,100.00
2019-02-11T03:26:46.026Z,100.00
2019-02-11T03:31:50.093Z,100.00
2019-02-11T03:36:54.129Z,100.00
2019-02-11T03:41:58.165Z,100.00
2019-02-11T03:47:02.237Z,100.00
2019-02-11T03:52:06.265Z,100.00
2019-02-11T03:57:10.383Z,100.00
2019-02-11T04:02:14.523Z,100.00
2019-02-11T04:07:18.952Z,100.00
2019-02-11T04:12:22.992Z,100.00
2019-02-11T04:17:27.302Z,100.00
2019-02-11T04:22:31.629Z,100.00
2019-02-11T04:27:35.731Z,100.00
2019-02-11T04:32:39.793Z,100.00
2019-02-11T04:37:43.911Z,100.00
2019-02-11T04:42:48.018Z,100.00
2019-02-11T04:47:52.347Z,100.00
2019-02-11T04:52:56.412Z,100.00
2019-02-11T04:58:00.492Z,100.00
2019-02-11T05:03:04.554Z,100.00
2019-02-11T05:08:08.623Z,100.00
2019-02-11T05:13:12.968Z,100.00
2019-02-11T05:18:17.141Z,100.00
2019-02-11T05:23:21.242Z,100.00
2019-02-11T05:28:25.298Z,100.00
2019-02-11T05:33:29.344Z,100.00
2019-02-11T05:38:33.417Z,100.00
2019-02-11T05:43:37.574Z,100.00
2019-02-11T05:48:41.649Z,100.00
2019-02-11T05:53:45.701Z,100.00
2019-02-11T05:58:50.179Z,100.00
2019-02-11T06:03:54.900Z,100.00
2019-02-11T06:09:00.219Z,100.00
2019-02-11T06:14:05.312Z,100.00
2019-02-11T06:19:09.647Z,100.00
2019-02-11T06:24:13.692Z,100.00
2019-02-11T06:29:19.033Z,100.00
2019-02-11T06:34:23.457Z,100.00
2019-02-11T06:39:27.953Z,100.00
2019-02-11T06:44:32.789Z,100.00
2019-02-11T06:49:36.888Z,100.00
2019-02-11T06:54:41.273Z,100.00
2019-02-11T06:59:45.534Z,100.00
2019-02-11T07:04:50.059Z,100.00
2019-02-11T07:09:54.172Z,100.00
2019-02-11T07:14:58.498Z,100.00
2019-02-11T07:20:02.629Z,100.00
2019-02-11T07:25:07.943Z,100.00
2019-02-11T07:30:12.256Z,100.00
2019-02-11T07:35:16.328Z,100.00
2019-02-11T07:40:20.810Z,100.00
2019-02-11T07:45:30.071Z,100.00
2019-02-11T07:50:30.809Z,100.00
2019-02-11T07:55:35.094Z,100.00
2019-02-11T08:00:39.148Z,100.00
2019-02-11T08:05:43.195Z,100.00
2019-02-11T08:10:47.551Z,100.00
2019-02-11T08:15:51.599Z,100.00
2019-02-11T08:20:55.662Z,100.00
2019-02-11T08:25:59.711Z,99.16
2019-02-11T08:31:04.021Z,99.00
2019-02-11T08:36:09.793Z,97.46
2019-02-11T08:41:13.842Z,96.65
2019-02-11T08:46:17.866Z,94.97
2019-02-11T08:51:21.894Z,89.93
2019-02-11T08:56:25.947Z,87.46
2019-02-11T09:01:30.117Z,88.90
2019-02-11T09:06:35.293Z,87.18
2019-02-11T09:11:39.338Z,88.75
2019-02-11T09:16:43.422Z,88.40
2019-02-11T09:21:47.537Z,85.98
2019-02-11T09:26:51.890Z,85.66
2019-02-11T09:31:55.942Z,82.61
2019-02-11T09:36:59.999Z,82.10
2019-02-11T09:42:04.015Z,82.16
2019-02-11T09:47:08.091Z,79.44
2019-02-11T09:52:12.252Z,79.33
2019-02-11T09:57:16.374Z,76.96
2019-02-11T10:02:20.536Z,76.05
2019-02-11T10:07:24.579Z,76.60
2019-02-11T10:12:28.647Z,77.02
2019-02-11T10:17:32.739Z,76.19
2019-02-11T10:22:36.886Z,75.05
2019-02-11T10:27:40.996Z,73.41
2019-02-11T10:32:45.062Z,72.86
2019-02-11T10:37:50.225Z,74.73
2019-02-11T10:42:54.305Z,74.18
2019-02-11T10:47:58.629Z,70.57
2019-02-11T10:53:03.003Z,72.15
2019-02-11T10:58:07.796Z,67.15
2019-02-11T11:03:12.145Z,64.92
2019-02-11T11:08:16.529Z,64.58
2019-02-11T11:13:20.697Z,64.74
2019-02-11T11:18:24.730Z,64.52
2019-02-11T11:23:29.049Z,68.25
2019-02-11T11:28:33.290Z,67.16
2019-02-11T11:33:37.395Z,67.18
2019-02-11T11:38:41.535Z,65.67
2019-02-11T11:43:45.567Z,64.65
2019-02-11T11:48:49.674Z,65.05
2019-02-11T11:53:53.792Z,65.40
2019-02-11T11:58:57.886Z,66.30
2019-02-11T12:04:03.953Z,65.69
2019-02-11T12:09:07.762Z,66.17
2019-02-11T12:14:11.864Z,66.50
2019-02-11T12:19:15.910Z,66.99
2019-02-11T12:24:19.971Z,67.49
2019-02-11T12:29:24.040Z,67.66
2019-02-11T12:34:28.162Z,68.39
2019-02-11T12:39:32.585Z,69.33
2019-02-11T12:44:36.645Z,70.24
2019-02-11T12:49:40.708Z,74.89
2019-02-11T12:54:44.797Z,76.73
2019-02-11T12:59:48.886Z,80.44
2019-02-11T13:04:52.980Z,76.29
2019-02-11T13:09:57.049Z,77.99
2019-02-11T13:15:01.100Z,82.29
2019-02-11T13:20:09.600Z,83.21
2019-02-11T13:25:12.763Z,83.53
2019-02-11T13:30:18.090Z,78.28
2019-02-11T13:35:22.480Z,78.48
2019-02-11T13:40:26.895Z,76.49
2019-02-11T13:45:30.947Z,74.08
2019-02-11T13:50:34.993Z,76.76
2019-02-11T13:55:39.068Z,77.16
2019-02-11T14:00:43.376Z,76.42
2019-02-11T14:05:47.496Z,77.28
2019-02-11T14:10:51.974Z,75.50
2019-02-11T14:15:56.335Z,75.84
2019-02-11T14:21:00.428Z,76.18
2019-02-11T14:26:04.593Z,76.21
2019-02-11T14:31:08.616Z,75.97
2019-02-11T14:36:13.052Z,77.11
2019-02-11T14:41:17.458Z,78.51
2019-02-11T14:46:21.526Z,79.13
2019-02-11T14:51:25.601Z,79.79
2019-02-11T14:56:29.764Z,79.94
2019-02-11T15:01:33.912Z,79.64
2019-02-11T15:06:38.042Z,77.10
2019-02-11T15:11:42.153Z,74.69
2019-02-11T15:16:46.298Z,74.85
2019-02-11T15:21:50.340Z,74.87
2019-02-11T15:26:54.522Z,74.50
2019-02-11T15:31:58.589Z,74.36
2019-02-11T15:37:02.613Z,72.26
2019-02-11T15:42:06.688Z,72.54
2019-02-11T15:47:10.792Z,72.82
2019-02-11T15:52:16.229Z,74.04
2019-02-11T15:57:20.269Z,72.47
2019-02-11T16:02:24.353Z,68.71
2019-02-11T16:07:28.741Z,68.19
2019-02-11T16:12:34.852Z,66.82
2019-02-11T16:17:39.000Z,67.24
2019-02-11T16:22:43.059Z,66.78
2019-02-11T16:27:47.196Z,67.44
2019-02-11T16:32:51.301Z,67.52
2019-02-11T16:37:55.399Z,67.55
2019-02-11T16:42:59.496Z,68.58
2019-02-11T16:48:03.641Z,64.50
2019-02-11T16:53:07.658Z,63.26
2019-02-11T16:58:12.184Z,62.18
2019-02-11T17:03:16.263Z,61.45
2019-02-11T17:08:21.276Z,62.06
2019-02-11T17:13:25.334Z,63.60
2019-02-11T17:18:29.411Z,62.47
2019-02-11T17:23:33.470Z,63.63
2019-02-11T17:28:37.568Z,64.47
2019-02-11T17:33:41.661Z,65.31
2019-02-11T17:38:46.023Z,64.34
2019-02-11T17:43:50.106Z,64.13
2019-02-11T17:48:54.179Z,65.02
2019-02-11T17:53:58.267Z,65.62
2019-02-11T17:59:04.010Z,65.03
2019-02-11T18:04:08.082Z,65.44
2019-02-11T18:09:12.186Z,65.20
2019-02-11T18:14:16.516Z,65.67
2019-02-11T18:19:26.002Z,67.28
2019-02-11T18:24:26.583Z,68.16
2019-02-11T18:29:30.997Z,67.48
2019-02-11T18:34:35.230Z,68.19
2019-02-11T18:39:39.319Z,67.68
2019-02-11T18:44:43.351Z,67.50
2019-02-11T18:49:47.406Z,69.05
2019-02-11T18:54:51.450Z,69.37
2019-02-11T18:59:55.799Z,68.80
2019-02-11T19:04:59.886Z,70.06
2019-02-11T19:10:04.428Z,71.23
2019-02-11T19:15:09.934Z,73.35
2019-02-11T19:20:14.532Z,77.52
2019-02-11T19:25:19.523Z,81.02
2019-02-11T19:30:23.586Z,83.27
2019-02-11T19:35:27.648Z,84.88
2019-02-11T19:40:31.704Z,84.80
2019-02-11T19:45:38.302Z,83.47
2019-02-11T19:50:42.517Z,83.20
2019-02-11T19:55:46.541Z,83.40
2019-02-11T20:00:50.983Z,83.96
2019-02-11T20:05:55.393Z,82.66
2019-02-11T20:10:59.561Z,82.75
2019-02-11T20:16:03.828Z,82.06
2019-02-11T20:21:08.836Z,81.55
2019-02-11T20:26:13.272Z,81.85
2019-02-11T20:31:17.765Z,82.35
2019-02-11T20:36:22.620Z,82.70
2019-02-11T20:41:27.868Z,82.50
2019-02-11T20:46:33.905Z,81.29
2019-02-11T20:51:38.730Z,81.51
2019-02-11T20:56:42.984Z,81.75
2019-02-11T21:01:51.169Z,81.69
2019-02-11T21:06:55.372Z,81.32
2019-02-11T21:12:01.930Z,81.57
2019-02-11T21:17:06.412Z,81.55
2019-02-11T21:22:10.623Z,81.09
2019-02-11T21:27:14.742Z,81.53
2019-02-11T21:32:19.101Z,81.65
2019-02-11T21:37:23.165Z,79.86
2019-02-11T21:42:27.248Z,80.02
2019-02-11T21:47:31.338Z,80.35
2019-02-11T21:52:35.423Z,80.37
2019-02-11T21:57:39.507Z,80.94
2019-02-11T22:02:44.069Z,81.54
2019-02-11T22:07:48.277Z,80.96
2019-02-11T22:12:53.466Z,80.08
2019-02-11T22:17:57.557Z,80.55
2019-02-11T22:23:02.004Z,79.99
2019-02-11T22:28:06.371Z,80.61
2019-02-11T22:33:10.437Z,80.53
2019-02-11T22:38:14.503Z,78.88
2019-02-11T22:43:18.676Z,78.92
2019-02-11T22:48:22.748Z,78.27
2019-02-11T22:53:26.974Z,77.18
2019-02-11T22:58:31.834Z,77.42
2019-02-11T23:03:36.668Z,77.97
2019-02-11T23:08:40.761Z,77.87
2019-02-11T23:13:44.830Z,77.92
2019-02-11T23:18:48.887Z,78.11
2019-02-11T23:23:54.849Z,78.19
2019-02-11T23:28:58.993Z,77.87
2019-02-11T23:34:03.378Z,77.72
2019-02-11T23:39:07.627Z,77.97
2019-02-11T23:44:11.781Z,79.33
2019-02-11T23:49:15.982Z,78.74
2019-02-11T23:54:20.383Z,79.31
2019-02-11T23:59:24.626Z,79.61
